Ana Sayfa
METAR-TAF:

METAR-TAF

Havaalanları :

Amman, Ürdün

Enlem: 31-59N, Boylam: 035-59E, yükseklik: 767 m

Güncel hava durumu gözlemi

Rapor saat 14:00 UTC de 25 dakika önce yapıldı.
Rüzgar kuzeybatıdan 8 kt
Sıcaklık 25°C
Nem 44%
Basınç 1014 hPa
Görüş mesafesi: 4000 m
2500 ft yükseklikte parçalı bulutlu, Yükselen kümülüs.
yaygın toz

METAR: OJAM 191400Z 32008KT 4000 DU SCT025TCU 25/12 Q1014 NOSIG

Saat: 17:25 (14:25 UTC)

Tahmin

Rapor saat 11:00 UTC de 3 saat ve 25 dakika önce yapıldı.
Ayın 19'si saat 12 UTC'den ayın 20'si saat 18 UTC'ye kadar geçerli Tahmin
Rüzgar batıdan 6 kt
Görüş mesafesi: 4000 m
3000 ft yükseklikte az bulutlu
Toz Pusu
Olasılık 40%
ayın 19'si saat 13 UTC'den ayın 19'si saat 17 UTC'ye kadar
Görüş mesafesi: 3000 m
yaygın toz
Geçici
ayın 20'si saat 02 UTC'den ayın 20'si saat 06 UTC'ye kadar
Rüzgar değişken yönden 1 kt
Görüş mesafesi: 3000 m
Pus

TAF: OJAM 191100Z 1912/2018 28006KT 4000 HZ FEW030 PROB40 1913/1917 3000 DU TEMPO 2002/2006 VRB01KT 3000 BR

4.000'den fazla havaalanı için hava durumu gözlemleri ve tahminleri (METAR ve TAF raporları).

Kullanılabilir istasyonlar harita üzerinde sarı ve kırmızı noktalarla gösterilir.

İstasyonun adını görmek için fareyi noktanın üzerinde gezdirin.

Sonrasında hava gözlem ve tahminlerini görmek için tıklayın.

Haritayı değiştirmek için: yaklaştırmak için siyah artı işaretli yeşil düğmeye ve uzaklaştırmak için de eksi işaretli düğmeye hızla tıklayın; bitişik haritalar için yeşil okları kullanın.


METAR-TAF: